sensor_id;sensor_type;location;lat;lon;timestamp;pressure;altitude;pressure_sealevel;temperature;humidity
69351;BME280;57106;51.446;-2.606;2023-09-30T00:01:01;102500.96;;;15.81;73.85
69351;BME280;57106;51.446;-2.606;2023-09-30T00:03:27;102514.59;;;15.94;73.22
69351;BME280;57106;51.446;-2.606;2023-09-30T00:05:52;102525.06;;;15.87;73.17
69351;BME280;57106;51.446;-2.606;2023-09-30T00:08:17;102528.24;;;15.71;73.69
69351;BME280;57106;51.446;-2.606;2023-09-30T00:10:43;102525.82;;;15.79;73.61
69351;BME280;57106;51.446;-2.606;2023-09-30T00:13:08;102520.80;;;15.73;73.85
69351;BME280;57106;51.446;-2.606;2023-09-30T00:15:34;102519.39;;;15.72;73.75
69351;BME280;57106;51.446;-2.606;2023-09-30T00:17:59;102529.84;;;15.74;73.69
69351;BME280;57106;51.446;-2.606;2023-09-30T00:20:25;102535.30;;;15.74;73.84
69351;BME280;57106;51.446;-2.606;2023-09-30T00:22:50;102533.08;;;15.64;74.14
69351;BME280;57106;51.446;-2.606;2023-09-30T00:25:16;102530.11;;;15.60;74.43
69351;BME280;57106;51.446;-2.606;2023-09-30T00:27:41;102524.10;;;15.58;74.28
69351;BME280;57106;51.446;-2.606;2023-09-30T00:30:07;102512.00;;;15.62;74.22
69351;BME280;57106;51.446;-2.606;2023-09-30T00:32:32;102508.99;;;15.54;74.29
69351;BME280;57106;51.446;-2.606;2023-09-30T00:34:57;102517.51;;;15.67;74.15
69351;BME280;57106;51.446;-2.606;2023-09-30T00:37:23;102524.99;;;15.60;74.16
69351;BME280;57106;51.446;-2.606;2023-09-30T00:39:48;102529.50;;;15.69;73.95
69351;BME280;57106;51.446;-2.606;2023-09-30T00:42:14;102525.74;;;15.70;73.70
69351;BME280;57106;51.446;-2.606;2023-09-30T00:44:39;102524.70;;;15.58;74.25
69351;BME280;57106;51.446;-2.606;2023-09-30T00:47:04;102523.22;;;15.63;73.92
69351;BME280;57106;51.446;-2.606;2023-09-30T00:49:30;102525.88;;;15.66;73.56
69351;BME280;57106;51.446;-2.606;2023-09-30T00:51:56;102523.77;;;15.53;73.99
69351;BME280;57106;51.446;-2.606;2023-09-30T00:56:47;102517.19;;;15.68;73.60
69351;BME280;57106;51.446;-2.606;2023-09-30T00:59:12;102522.26;;;15.65;73.94
69351;BME280;57106;51.446;-2.606;2023-09-30T01:01:37;102517.67;;;15.60;73.97
69351;BME280;57106;51.446;-2.606;2023-09-30T01:04:03;102514.31;;;15.62;73.74
69351;BME280;57106;51.446;-2.606;2023-09-30T01:06:29;102517.87;;;15.45;74.43
69351;BME280;57106;51.446;-2.606;2023-09-30T01:08:54;102517.71;;;15.65;73.72
69351;BME280;57106;51.446;-2.606;2023-09-30T01:11:19;102519.25;;;15.60;74.01
69351;BME280;57106;51.446;-2.606;2023-09-30T01:13:45;102515.31;;;15.60;73.60
69351;BME280;57106;51.446;-2.606;2023-09-30T01:16:10;102509.40;;;15.71;73.51
69351;BME280;57106;51.446;-2.606;2023-09-30T01:18:36;102508.68;;;15.64;73.59
69351;BME280;57106;51.446;-2.606;2023-09-30T01:21:03;102496.34;;;15.62;73.80
69351;BME280;57106;51.446;-2.606;2023-09-30T01:23:26;102499.07;;;15.69;73.30
69351;BME280;57106;51.446;-2.606;2023-09-30T01:25:51;102505.83;;;15.69;73.36
69351;BME280;57106;51.446;-2.606;2023-09-30T01:28:17;102501.61;;;15.53;73.81
69351;BME280;57106;51.446;-2.606;2023-09-30T01:30:43;102487.82;;;15.55;74.38
69351;BME280;57106;51.446;-2.606;2023-09-30T01:33:08;102481.88;;;15.57;74.19
69351;BME280;57106;51.446;-2.606;2023-09-30T01:35:34;102479.05;;;15.57;74.19
69351;BME280;57106;51.446;-2.606;2023-09-30T01:37:59;102484.08;;;15.47;74.71
69351;BME280;57106;51.446;-2.606;2023-09-30T01:40:25;102486.18;;;15.51;74.65
69351;BME280;57106;51.446;-2.606;2023-09-30T01:42:52;102480.70;;;15.57;74.34
69351;BME280;57106;51.446;-2.606;2023-09-30T01:45:20;102480.90;;;15.57;74.30
69351;BME280;57106;51.446;-2.606;2023-09-30T01:47:41;102476.35;;;15.46;74.79
69351;BME280;57106;51.446;-2.606;2023-09-30T01:50:07;102470.29;;;15.47;74.89
69351;BME280;57106;51.446;-2.606;2023-09-30T01:52:32;102473.29;;;15.48;74.79
69351;BME280;57106;51.446;-2.606;2023-09-30T01:54:57;102475.61;;;15.48;74.89
69351;BME280;57106;51.446;-2.606;2023-09-30T01:57:23;102476.75;;;15.36;75.31
69351;BME280;57106;51.446;-2.606;2023-09-30T01:59:48;102472.05;;;15.29;76.05
69351;BME280;57106;51.446;-2.606;2023-09-30T02:02:13;102472.68;;;15.12;76.23
69351;BME280;57106;51.446;-2.606;2023-09-30T02:04:42;102476.34;;;15.15;75.72
69351;BME280;57106;51.446;-2.606;2023-09-30T02:07:10;102465.69;;;15.16;75.54
69351;BME280;57106;51.446;-2.606;2023-09-30T02:09:30;102471.90;;;15.17;75.62
69351;BME280;57106;51.446;-2.606;2023-09-30T02:11:55;102479.24;;;15.25;75.78
69351;BME280;57106;51.446;-2.606;2023-09-30T02:14:21;102475.53;;;15.17;76.35
69351;BME280;57106;51.446;-2.606;2023-09-30T02:16:48;102465.37;;;15.03;76.94
69351;BME280;57106;51.446;-2.606;2023-09-30T02:19:12;102462.90;;;15.09;76.65
69351;BME280;57106;51.446;-2.606;2023-09-30T02:21:37;102464.22;;;15.15;76.03
69351;BME280;57106;51.446;-2.606;2023-09-30T02:24:04;102463.27;;;14.96;77.02
69351;BME280;57106;51.446;-2.606;2023-09-30T02:26:28;102467.31;;;14.88;77.38
69351;BME280;57106;51.446;-2.606;2023-09-30T02:28:54;102464.39;;;15.00;77.23
69351;BME280;57106;51.446;-2.606;2023-09-30T02:31:19;102467.07;;;15.15;76.41
69351;BME280;57106;51.446;-2.606;2023-09-30T02:33:45;102477.79;;;15.20;76.18
69351;BME280;57106;51.446;-2.606;2023-09-30T02:38:35;102477.25;;;15.01;77.03
69351;BME280;57106;51.446;-2.606;2023-09-30T02:41:01;102475.28;;;15.13;75.74
69351;BME280;57106;51.446;-2.606;2023-09-30T02:43:26;102486.50;;;15.14;75.73
69351;BME280;57106;51.446;-2.606;2023-09-30T02:45:52;102491.42;;;15.11;75.73
69351;BME280;57106;51.446;-2.606;2023-09-30T02:48:17;102484.36;;;15.07;75.85
69351;BME280;57106;51.446;-2.606;2023-09-30T02:50:42;102470.26;;;15.06;76.17
69351;BME280;57106;51.446;-2.606;2023-09-30T02:53:08;102467.22;;;15.09;75.73
69351;BME280;57106;51.446;-2.606;2023-09-30T02:55:34;102472.25;;;15.16;75.27
69351;BME280;57106;51.446;-2.606;2023-09-30T02:57:59;102470.37;;;15.06;75.78
69351;BME280;57106;51.446;-2.606;2023-09-30T03:00:24;102468.57;;;15.07;75.77
69351;BME280;57106;51.446;-2.606;2023-09-30T03:02:51;102463.44;;;15.03;75.49
69351;BME280;57106;51.446;-2.606;2023-09-30T03:05:15;102452.50;;;15.02;75.79
69351;BME280;57106;51.446;-2.606;2023-09-30T03:07:41;102441.42;;;14.88;76.50
69351;BME280;57106;51.446;-2.606;2023-09-30T03:10:07;102439.05;;;14.91;75.95
69351;BME280;57106;51.446;-2.606;2023-09-30T03:12:32;102442.80;;;14.85;76.59
69351;BME280;57106;51.446;-2.606;2023-09-30T03:14:57;102445.49;;;15.03;75.60
69351;BME280;57106;51.446;-2.606;2023-09-30T03:17:22;102443.76;;;15.02;75.32
69351;BME280;57106;51.446;-2.606;2023-09-30T03:19:48;102431.14;;;15.05;75.14
69351;BME280;57106;51.446;-2.606;2023-09-30T03:22:13;102422.94;;;14.93;75.28
69351;BME280;57106;51.446;-2.606;2023-09-30T03:24:39;102414.95;;;14.86;75.75
69351;BME280;57106;51.446;-2.606;2023-09-30T03:27:04;102412.32;;;14.82;75.69
69351;BME280;57106;51.446;-2.606;2023-09-30T03:29:36;102408.29;;;14.87;75.49
69351;BME280;57106;51.446;-2.606;2023-09-30T03:31:55;102397.29;;;14.68;75.96
69351;BME280;57106;51.446;-2.606;2023-09-30T03:34:21;102396.40;;;14.46;76.82
69351;BME280;57106;51.446;-2.606;2023-09-30T03:36:46;102401.09;;;14.52;77.02
69351;BME280;57106;51.446;-2.606;2023-09-30T03:39:12;102408.81;;;14.58;77.03
69351;BME280;57106;51.446;-2.606;2023-09-30T03:41:37;102406.94;;;14.63;76.83
69351;BME280;57106;51.446;-2.606;2023-09-30T03:44:03;102410.46;;;14.54;76.92
69351;BME280;57106;51.446;-2.606;2023-09-30T03:46:28;102419.87;;;14.59;76.81
69351;BME280;57106;51.446;-2.606;2023-09-30T03:48:53;102427.73;;;14.63;76.52
69351;BME280;57106;51.446;-2.606;2023-09-30T03:51:19;102421.16;;;14.71;76.18
69351;BME280;57106;51.446;-2.606;2023-09-30T03:53:46;102426.70;;;14.74;75.93
69351;BME280;57106;51.446;-2.606;2023-09-30T03:56:11;102428.49;;;14.74;75.81
69351;BME280;57106;51.446;-2.606;2023-09-30T03:58:35;102427.10;;;14.81;75.59
69351;BME280;57106;51.446;-2.606;2023-09-30T04:01:01;102427.01;;;14.83;75.51
69351;BME280;57106;51.446;-2.606;2023-09-30T04:03:26;102415.51;;;14.64;75.82
69351;BME280;57106;51.446;-2.606;2023-09-30T04:05:52;102417.08;;;14.62;76.39
69351;BME280;57106;51.446;-2.606;2023-09-30T04:08:17;102420.57;;;14.62;76.13
69351;BME280;57106;51.446;-2.606;2023-09-30T04:10:43;102417.73;;;14.69;76.36
69351;BME280;57106;51.446;-2.606;2023-09-30T04:13:08;102416.84;;;14.70;76.40
69351;BME280;57106;51.446;-2.606;2023-09-30T04:15:34;102419.40;;;14.87;75.93
69351;BME280;57106;51.446;-2.606;2023-09-30T04:17:59;102425.56;;;14.90;75.60
69351;BME280;57106;51.446;-2.606;2023-09-30T04:20:24;102420.57;;;15.03;74.89
69351;BME280;57106;51.446;-2.606;2023-09-30T04:22:50;102414.74;;;14.97;74.56
69351;BME280;57106;51.446;-2.606;2023-09-30T04:25:16;102419.86;;;14.98;74.62
69351;BME280;57106;51.446;-2.606;2023-09-30T04:27:41;102420.32;;;14.89;74.96
69351;BME280;57106;51.446;-2.606;2023-09-30T04:30:07;102414.97;;;14.97;74.96
69351;BME280;57106;51.446;-2.606;2023-09-30T04:32:37;102408.41;;;14.99;74.69
69351;BME280;57106;51.446;-2.606;2023-09-30T04:34:57;102397.24;;;14.81;75.89
69351;BME280;57106;51.446;-2.606;2023-09-30T04:37:22;102395.63;;;14.92;75.42
69351;BME280;57106;51.446;-2.606;2023-09-30T04:39:48;102392.24;;;14.98;74.87
69351;BME280;57106;51.446;-2.606;2023-09-30T04:42:14;102395.72;;;14.93;74.90
69351;BME280;57106;51.446;-2.606;2023-09-30T04:44:39;102405.66;;;14.92;74.90
69351;BME280;57106;51.446;-2.606;2023-09-30T04:47:04;102409.33;;;14.76;75.65
69351;BME280;57106;51.446;-2.606;2023-09-30T04:49:30;102406.06;;;14.78;75.74
69351;BME280;57106;51.446;-2.606;2023-09-30T04:51:56;102398.60;;;14.83;75.00
69351;BME280;57106;51.446;-2.606;2023-09-30T04:54:21;102393.13;;;14.60;75.61
69351;BME280;57106;51.446;-2.606;2023-09-30T04:56:46;102395.88;;;14.61;75.69
69351;BME280;57106;51.446;-2.606;2023-09-30T04:59:11;102405.84;;;14.44;76.12
69351;BME280;57106;51.446;-2.606;2023-09-30T05:01:37;102404.30;;;14.37;76.19
69351;BME280;57106;51.446;-2.606;2023-09-30T05:04:03;102404.18;;;14.42;76.49
69351;BME280;57106;51.446;-2.606;2023-09-30T05:06:28;102406.61;;;14.35;76.42
69351;BME280;57106;51.446;-2.606;2023-09-30T05:08:53;102412.64;;;14.38;76.96
69351;BME280;57106;51.446;-2.606;2023-09-30T05:11:19;102422.70;;;14.54;76.64
69351;BME280;57106;51.446;-2.606;2023-09-30T05:13:45;102426.81;;;14.61;76.32
69351;BME280;57106;51.446;-2.606;2023-09-30T05:16:12;102419.22;;;14.62;76.25
69351;BME280;57106;51.446;-2.606;2023-09-30T05:18:35;102418.55;;;14.54;76.86
69351;BME280;57106;51.446;-2.606;2023-09-30T05:21:01;102424.53;;;14.54;76.93
69351;BME280;57106;51.446;-2.606;2023-09-30T05:23:26;102433.70;;;14.57;76.67
69351;BME280;57106;51.446;-2.606;2023-09-30T05:25:51;102437.68;;;14.56;76.49
69351;BME280;57106;51.446;-2.606;2023-09-30T05:28:17;102433.72;;;14.44;77.24
69351;BME280;57106;51.446;-2.606;2023-09-30T05:30:42;102426.03;;;14.42;77.12
69351;BME280;57106;51.446;-2.606;2023-09-30T05:33:08;102427.47;;;14.44;76.94
69351;BME280;57106;51.446;-2.606;2023-09-30T05:35:34;102433.80;;;14.28;77.84
69351;BME280;57106;51.446;-2.606;2023-09-30T05:37:59;102439.08;;;14.23;78.01
69351;BME280;57106;51.446;-2.606;2023-09-30T05:40:24;102440.03;;;14.07;78.21
69351;BME280;57106;51.446;-2.606;2023-09-30T05:42:50;102433.36;;;14.05;78.55
69351;BME280;57106;51.446;-2.606;2023-09-30T05:45:16;102434.35;;;14.14;78.06
69351;BME280;57106;51.446;-2.606;2023-09-30T05:47:41;102427.14;;;13.96;78.72
69351;BME280;57106;51.446;-2.606;2023-09-30T05:50:07;102420.40;;;14.08;77.85
69351;BME280;57106;51.446;-2.606;2023-09-30T05:52:32;102417.99;;;13.91;77.93
69351;BME280;57106;51.446;-2.606;2023-09-30T05:54:57;102410.52;;;13.66;78.89
69351;BME280;57106;51.446;-2.606;2023-09-30T05:57:23;102412.15;;;13.63;79.39
69351;BME280;57106;51.446;-2.606;2023-09-30T05:59:48;102413.45;;;13.79;78.83
69351;BME280;57106;51.446;-2.606;2023-09-30T06:02:14;102421.24;;;13.85;78.48
69351;BME280;57106;51.446;-2.606;2023-09-30T06:04:39;102417.38;;;13.81;78.70
69351;BME280;57106;51.446;-2.606;2023-09-30T06:07:04;102414.89;;;13.85;78.66
69351;BME280;57106;51.446;-2.606;2023-09-30T06:09:30;102418.43;;;13.86;78.13
69351;BME280;57106;51.446;-2.606;2023-09-30T06:11:55;102421.67;;;13.85;78.07
69351;BME280;57106;51.446;-2.606;2023-09-30T06:14:21;102433.23;;;13.77;78.23
69351;BME280;57106;51.446;-2.606;2023-09-30T06:16:47;102439.72;;;13.65;78.79
69351;BME280;57106;51.446;-2.606;2023-09-30T06:19:12;102442.55;;;13.73;78.72
69351;BME280;57106;51.446;-2.606;2023-09-30T06:21:37;102445.43;;;13.77;78.27
69351;BME280;57106;51.446;-2.606;2023-09-30T06:24:04;102450.50;;;13.76;78.08
69351;BME280;57106;51.446;-2.606;2023-09-30T06:26:28;102456.39;;;13.75;77.97
69351;BME280;57106;51.446;-2.606;2023-09-30T06:28:54;102459.64;;;13.76;77.99
69351;BME280;57106;51.446;-2.606;2023-09-30T06:31:20;102462.70;;;13.76;77.84
69351;BME280;57106;51.446;-2.606;2023-09-30T06:33:46;102461.37;;;13.67;78.21
69351;BME280;57106;51.446;-2.606;2023-09-30T06:36:11;102450.81;;;13.63;78.58
69351;BME280;57106;51.446;-2.606;2023-09-30T06:38:36;102441.07;;;13.64;78.23
69351;BME280;57106;51.446;-2.606;2023-09-30T06:41:01;102440.72;;;13.66;78.26
69351;BME280;57106;51.446;-2.606;2023-09-30T06:43:27;102442.49;;;13.67;78.11
69351;BME280;57106;51.446;-2.606;2023-09-30T06:45:52;102444.43;;;13.64;78.63
69351;BME280;57106;51.446;-2.606;2023-09-30T06:48:18;102445.80;;;13.66;78.82
69351;BME280;57106;51.446;-2.606;2023-09-30T06:50:45;102448.29;;;13.70;79.05
69351;BME280;57106;51.446;-2.606;2023-09-30T06:53:09;102446.85;;;13.76;79.00
69351;BME280;57106;51.446;-2.606;2023-09-30T06:55:34;102449.20;;;13.80;79.07
69351;BME280;57106;51.446;-2.606;2023-09-30T06:58:00;102453.45;;;13.91;78.59
69351;BME280;57106;51.446;-2.606;2023-09-30T07:00:25;102447.54;;;13.80;78.80
69351;BME280;57106;51.446;-2.606;2023-09-30T07:02:50;102439.00;;;13.86;78.88
69351;BME280;57106;51.446;-2.606;2023-09-30T07:05:17;102452.85;;;13.96;78.22
69351;BME280;57106;51.446;-2.606;2023-09-30T07:07:42;102467.95;;;14.05;78.46
69351;BME280;57106;51.446;-2.606;2023-09-30T07:10:08;102466.24;;;14.21;77.68
69351;BME280;57106;51.446;-2.606;2023-09-30T07:12:32;102471.51;;;14.37;77.16
69351;BME280;57106;51.446;-2.606;2023-09-30T07:14:58;102460.22;;;14.28;76.58
69351;BME280;57106;51.446;-2.606;2023-09-30T07:17:23;102451.26;;;14.19;77.28
69351;BME280;57106;51.446;-2.606;2023-09-30T07:19:49;102453.18;;;14.36;76.64
69351;BME280;57106;51.446;-2.606;2023-09-30T07:22:14;102454.87;;;14.65;75.98
69351;BME280;57106;51.446;-2.606;2023-09-30T07:24:40;102445.93;;;14.73;75.50
69351;BME280;57106;51.446;-2.606;2023-09-30T07:27:05;102453.26;;;14.72;75.80
69351;BME280;57106;51.446;-2.606;2023-09-30T07:29:31;102450.74;;;14.96;75.18
69351;BME280;57106;51.446;-2.606;2023-09-30T07:31:56;102441.58;;;15.03;74.92
69351;BME280;57106;51.446;-2.606;2023-09-30T07:34:21;102438.57;;;15.13;74.82
69351;BME280;57106;51.446;-2.606;2023-09-30T07:36:47;102446.05;;;15.23;74.58
69351;BME280;57106;51.446;-2.606;2023-09-30T07:39:12;102445.07;;;15.18;75.10
69351;BME280;57106;51.446;-2.606;2023-09-30T07:41:38;102443.32;;;15.26;75.02
69351;BME280;57106;51.446;-2.606;2023-09-30T07:44:04;102451.95;;;15.51;74.66
69351;BME280;57106;51.446;-2.606;2023-09-30T07:46:29;102448.26;;;15.64;74.00
69351;BME280;57106;51.446;-2.606;2023-09-30T07:48:55;102440.16;;;15.73;73.54
69351;BME280;57106;51.446;-2.606;2023-09-30T07:51:20;102441.50;;;15.77;73.33
69351;BME280;57106;51.446;-2.606;2023-09-30T07:53:46;102454.71;;;15.89;72.58
69351;BME280;57106;51.446;-2.606;2023-09-30T07:56:11;102463.11;;;15.86;72.87
69351;BME280;57106;51.446;-2.606;2023-09-30T07:58:36;102465.31;;;15.88;72.49
69351;BME280;57106;51.446;-2.606;2023-09-30T08:01:01;102461.01;;;16.00;72.17
69351;BME280;57106;51.446;-2.606;2023-09-30T08:03:27;102453.54;;;16.20;72.18
69351;BME280;57106;51.446;-2.606;2023-09-30T08:05:52;102451.73;;;16.24;71.05
69351;BME280;57106;51.446;-2.606;2023-09-30T08:08:17;102458.58;;;16.18;71.63
69351;BME280;57106;51.446;-2.606;2023-09-30T08:10:43;102454.75;;;15.81;72.26
69351;BME280;57106;51.446;-2.606;2023-09-30T08:13:08;102452.88;;;15.77;72.35
69351;BME280;57106;51.446;-2.606;2023-09-30T08:15:34;102454.04;;;15.74;72.75
69351;BME280;57106;51.446;-2.606;2023-09-30T08:17:59;102456.54;;;15.80;72.80
69351;BME280;57106;51.446;-2.606;2023-09-30T08:20:24;102462.78;;;15.83;73.07
69351;BME280;57106;51.446;-2.606;2023-09-30T08:22:50;102463.71;;;15.98;72.99
69351;BME280;57106;51.446;-2.606;2023-09-30T08:25:20;102458.95;;;16.02;72.65
69351;BME280;57106;51.446;-2.606;2023-09-30T08:27:43;102458.48;;;16.06;72.90
69351;BME280;57106;51.446;-2.606;2023-09-30T08:30:07;102454.83;;;16.16;72.72
69351;BME280;57106;51.446;-2.606;2023-09-30T08:32:33;102451.65;;;16.21;72.45
69351;BME280;57106;51.446;-2.606;2023-09-30T08:34:57;102456.81;;;16.17;72.20
69351;BME280;57106;51.446;-2.606;2023-09-30T08:37:22;102457.47;;;16.28;72.06
69351;BME280;57106;51.446;-2.606;2023-09-30T08:39:48;102451.72;;;16.38;71.56
69351;BME280;57106;51.446;-2.606;2023-09-30T08:42:13;102448.96;;;16.46;71.40
69351;BME280;57106;51.446;-2.606;2023-09-30T08:44:39;102450.41;;;16.47;71.34
69351;BME280;57106;51.446;-2.606;2023-09-30T08:47:05;102449.89;;;16.49;71.31
69351;BME280;57106;51.446;-2.606;2023-09-30T08:49:30;102442.45;;;16.56;71.10
69351;BME280;57106;51.446;-2.606;2023-09-30T08:51:55;102440.26;;;16.68;71.04
69351;BME280;57106;51.446;-2.606;2023-09-30T08:54:20;102442.92;;;16.74;70.94
69351;BME280;57106;51.446;-2.606;2023-09-30T08:56:48;102451.48;;;16.93;70.40
69351;BME280;57106;51.446;-2.606;2023-09-30T08:59:11;102456.05;;;16.87;70.53
69351;BME280;57106;51.446;-2.606;2023-09-30T09:04:02;102444.34;;;17.21;69.73
69351;BME280;57106;51.446;-2.606;2023-09-30T09:06:27;102443.02;;;17.12;69.52
69351;BME280;57106;51.446;-2.606;2023-09-30T09:08:52;102437.29;;;17.04;69.88
69351;BME280;57106;51.446;-2.606;2023-09-30T09:11:18;102440.31;;;17.22;69.67
69351;BME280;57106;51.446;-2.606;2023-09-30T09:13:48;102438.22;;;17.24;69.51
69351;BME280;57106;51.446;-2.606;2023-09-30T09:16:09;102426.92;;;17.14;70.02
69351;BME280;57106;51.446;-2.606;2023-09-30T09:18:34;102423.32;;;17.07;70.63
69351;BME280;57106;51.446;-2.606;2023-09-30T09:21:09;102420.70;;;16.97;70.69
69351;BME280;57106;51.446;-2.606;2023-09-30T09:23:24;102422.51;;;16.94;70.95
69351;BME280;57106;51.446;-2.606;2023-09-30T09:25:50;102423.97;;;17.30;70.68
69351;BME280;57106;51.446;-2.606;2023-09-30T09:28:15;102426.08;;;17.40;69.65
69351;BME280;57106;51.446;-2.606;2023-09-30T09:30:41;102422.16;;;17.35;69.63
69351;BME280;57106;51.446;-2.606;2023-09-30T09:33:06;102419.84;;;17.21;70.28
69351;BME280;57106;51.446;-2.606;2023-09-30T09:35:35;102415.14;;;17.22;71.11
69351;BME280;57106;51.446;-2.606;2023-09-30T09:37:58;102407.93;;;17.01;71.41
69351;BME280;57106;51.446;-2.606;2023-09-30T09:40:24;102399.80;;;17.34;70.81
69351;BME280;57106;51.446;-2.606;2023-09-30T09:42:47;102385.72;;;17.57;70.00
69351;BME280;57106;51.446;-2.606;2023-09-30T09:45:13;102368.88;;;17.35;70.81
69351;BME280;57106;51.446;-2.606;2023-09-30T09:47:38;102361.46;;;17.65;69.77
69351;BME280;57106;51.446;-2.606;2023-09-30T09:50:05;102358.39;;;17.81;69.64
69351;BME280;57106;51.446;-2.606;2023-09-30T09:52:30;102363.64;;;17.82;69.61
69351;BME280;57106;51.446;-2.606;2023-09-30T09:54:59;102364.83;;;18.08;68.63
69351;BME280;57106;51.446;-2.606;2023-09-30T09:57:20;102355.05;;;18.24;68.44
69351;BME280;57106;51.446;-2.606;2023-09-30T09:59:45;102361.52;;;18.20;69.01
69351;BME280;57106;51.446;-2.606;2023-09-30T10:02:11;102377.64;;;18.38;67.50
69351;BME280;57106;51.446;-2.606;2023-09-30T10:04:36;102377.06;;;18.21;67.90
69351;BME280;57106;51.446;-2.606;2023-09-30T10:07:01;102371.31;;;18.31;67.02
69351;BME280;57106;51.446;-2.606;2023-09-30T10:09:26;102359.15;;;18.18;66.75
69351;BME280;57106;51.446;-2.606;2023-09-30T10:11:57;102357.70;;;18.19;66.62
69351;BME280;57106;51.446;-2.606;2023-09-30T10:16:48;102349.54;;;18.33;65.66
69351;BME280;57106;51.446;-2.606;2023-09-30T10:19:08;102352.80;;;18.61;65.47
69351;BME280;57106;51.446;-2.606;2023-09-30T10:21:33;102357.00;;;18.84;64.89
69351;BME280;57106;51.446;-2.606;2023-09-30T10:26:23;102349.84;;;18.47;64.99
69351;BME280;57106;51.446;-2.606;2023-09-30T10:28:49;102345.98;;;18.55;65.13
69351;BME280;57106;51.446;-2.606;2023-09-30T10:31:15;102345.44;;;18.57;65.13
69351;BME280;57106;51.446;-2.606;2023-09-30T10:36:05;102366.30;;;18.61;64.26
69351;BME280;57106;51.446;-2.606;2023-09-30T10:38:37;102359.94;;;18.99;64.06
69351;BME280;57106;51.446;-2.606;2023-09-30T10:40:56;102343.97;;;19.03;63.58
69351;BME280;57106;51.446;-2.606;2023-09-30T10:43:29;102347.06;;;19.02;63.50
69351;BME280;57106;51.446;-2.606;2023-09-30T10:45:46;102342.76;;;19.30;62.69
69351;BME280;57106;51.446;-2.606;2023-09-30T10:50:51;102338.82;;;19.73;61.34
69351;BME280;57106;51.446;-2.606;2023-09-30T10:53:04;102329.01;;;19.62;61.17
69351;BME280;57106;51.446;-2.606;2023-09-30T10:55:27;102322.82;;;19.67;61.20
69351;BME280;57106;51.446;-2.606;2023-09-30T10:57:52;102326.47;;;19.73;60.14
69351;BME280;57106;51.446;-2.606;2023-09-30T11:00:19;102326.55;;;19.68;60.09
69351;BME280;57106;51.446;-2.606;2023-09-30T11:02:49;102322.03;;;19.77;59.51
69351;BME280;57106;51.446;-2.606;2023-09-30T11:05:09;102321.62;;;19.78;59.17
69351;BME280;57106;51.446;-2.606;2023-09-30T11:07:34;102329.04;;;19.79;58.66
69351;BME280;57106;51.446;-2.606;2023-09-30T11:10:05;102331.78;;;19.77;58.41
69351;BME280;57106;51.446;-2.606;2023-09-30T11:12:24;102327.60;;;19.63;58.94
69351;BME280;57106;51.446;-2.606;2023-09-30T11:14:59;102323.33;;;19.89;58.40
69351;BME280;57106;51.446;-2.606;2023-09-30T11:17:21;102327.36;;;19.63;59.10
69351;BME280;57106;51.446;-2.606;2023-09-30T11:19:46;102329.45;;;19.62;59.37
69351;BME280;57106;51.446;-2.606;2023-09-30T11:22:05;102330.23;;;19.69;58.82
69351;BME280;57106;51.446;-2.606;2023-09-30T11:24:35;102326.13;;;19.51;59.26
69351;BME280;57106;51.446;-2.606;2023-09-30T11:26:56;102316.02;;;19.70;58.72
69351;BME280;57106;51.446;-2.606;2023-09-30T11:29:21;102317.51;;;19.62;59.81
69351;BME280;57106;51.446;-2.606;2023-09-30T11:31:47;102310.52;;;19.79;59.81
69351;BME280;57106;51.446;-2.606;2023-09-30T11:34:13;102304.70;;;19.62;60.00
69351;BME280;57106;51.446;-2.606;2023-09-30T11:36:38;102309.06;;;19.87;59.27
69351;BME280;57106;51.446;-2.606;2023-09-30T11:39:03;102307.24;;;19.80;58.75
69351;BME280;57106;51.446;-2.606;2023-09-30T11:41:34;102300.45;;;19.85;58.86
69351;BME280;57106;51.446;-2.606;2023-09-30T11:44:00;102298.88;;;19.78;59.18
69351;BME280;57106;51.446;-2.606;2023-09-30T11:46:19;102300.38;;;19.54;60.15
69351;BME280;57106;51.446;-2.606;2023-09-30T11:51:09;102298.76;;;19.48;61.17
69351;BME280;57106;51.446;-2.606;2023-09-30T11:53:35;102304.04;;;19.56;61.52
69351;BME280;57106;51.446;-2.606;2023-09-30T11:56:01;102302.03;;;19.72;61.15
69351;BME280;57106;51.446;-2.606;2023-09-30T11:58:26;102297.30;;;20.00;60.62
69351;BME280;57106;51.446;-2.606;2023-09-30T12:00:53;102298.92;;;20.12;58.90
69351;BME280;57106;51.446;-2.606;2023-09-30T12:03:15;102293.00;;;19.97;59.29
69351;BME280;57106;51.446;-2.606;2023-09-30T12:05:41;102284.89;;;19.78;59.92
69351;BME280;57106;51.446;-2.606;2023-09-30T12:08:06;102284.84;;;19.81;59.01
69351;BME280;57106;51.446;-2.606;2023-09-30T12:10:32;102297.61;;;20.10;57.79
69351;BME280;57106;51.446;-2.606;2023-09-30T12:12:57;102291.63;;;20.18;57.29
69351;BME280;57106;51.446;-2.606;2023-09-30T12:15:22;102283.77;;;20.19;56.63
69351;BME280;57106;51.446;-2.606;2023-09-30T12:17:47;102276.94;;;20.25;56.48
69351;BME280;57106;51.446;-2.606;2023-09-30T12:20:14;102276.87;;;20.02;56.77
69351;BME280;57106;51.446;-2.606;2023-09-30T12:22:38;102273.62;;;19.82;56.21
69351;BME280;57106;51.446;-2.606;2023-09-30T12:25:04;102277.13;;;20.08;56.12
69351;BME280;57106;51.446;-2.606;2023-09-30T12:27:28;102277.09;;;20.10;55.25
69351;BME280;57106;51.446;-2.606;2023-09-30T12:29:54;102262.18;;;19.98;55.01
69351;BME280;57106;51.446;-2.606;2023-09-30T12:32:19;102270.27;;;20.19;54.62
69351;BME280;57106;51.446;-2.606;2023-09-30T12:34:44;102263.58;;;20.42;54.05
69351;BME280;57106;51.446;-2.606;2023-09-30T12:39:35;102258.95;;;20.21;54.38
69351;BME280;57106;51.446;-2.606;2023-09-30T12:46:51;102237.84;;;20.04;54.07
69351;BME280;57106;51.446;-2.606;2023-09-30T12:49:16;102238.18;;;20.06;54.49
69351;BME280;57106;51.446;-2.606;2023-09-30T12:51:41;102229.50;;;20.29;54.16
69351;BME280;57106;51.446;-2.606;2023-09-30T12:54:07;102225.93;;;20.33;55.17
69351;BME280;57106;51.446;-2.606;2023-09-30T12:56:32;102224.11;;;20.34;54.76